Mariner A — 9HVA7 — position and weather

sailwx.info

Track history (hours):
 
Tides and Currents Weather Stations Pressure Air Temp Water Temp Dewpoint Dewpoint Depression Visibility Wind Speed Wind Dir Waves Ship Positions

Mariner A

Last reported at 2015-May-20 07:19 UTC. Time now 2015-May-22 08:29 UTC.
Position N 32°55' E 034°44'.

Length 176 m; draft 7.8 m.

Type: Tanker. MMSI: 215817000.

Date/timePositionNaut miles runAvg speedWind from/ knotsBaromVisibWave heightAir tempDewpointWater temp
2015-May-20 07:19N 32°55' E 034°44'1213.8
2015-May-20 06:26N 32°58' E 034°30'19 9.9
2015-May-20 04:33N 33°14' E 034°17'1313.3
2015-May-20 03:33N 33°27' E 034°20'3213.5
2015-May-20 01:12N 33°58' E 034°26'  
2015-May-16 11:26N 36°45' E 034°44'15110.5
2015-May-15 21:08N 34°15' E 034°30'812.8
2015-May-15 20:33N 34°07' E 034°28'1312.6
2015-May-15 19:33N 33°55' E 034°26'1212.4
2015-May-15 18:33N 33°43' E 034°24'1412.7
2015-May-15 17:27N 33°29' E 034°23'1212.8
2015-May-15 16:32N 33°17' E 034°22'2912.7
2015-May-15 14:16N 32°48' E 034°19'1012.9
2015-May-15 13:30N 32°38' E 034°19'58 1.1
2015-May-13 10:15N 31°41' E 034°30'43 3.7
2015-May-12 22:24N 32°10' E 033°52'1613.3
2015-May-12 21:13N 32°25' E 033°56'1114.1
2015-May-12 20:26N 32°36' E 033°60'  
Track history (hours):
 
Tides and Currents Weather Stations Pressure Air Temp Water Temp Dewpoint Dewpoint Depression Visibility Wind Speed Wind Dir Waves Ship Positions

Mariner A

Last reported at 2015-May-20 07:19 UTC. Time now 2015-May-22 08:29 UTC.
Position N 32°55' E 034°44'.

Length 176 m; draft 7.8 m.

Type: Tanker. MMSI: 215817000.

Date/timePositionNaut miles runAvg speedWind from/ knotsBaromVisibWave heightAir tempDewpointWater temp
2015-May-20 07:19N 32°55' E 034°44'1213.8
2015-May-20 06:26N 32°58' E 034°30'19 9.9
2015-May-20 04:33N 33°14' E 034°17'1313.3
2015-May-20 03:33N 33°27' E 034°20'3213.5
2015-May-20 01:12N 33°58' E 034°26'  
2015-May-16 11:26N 36°45' E 034°44'15110.5
2015-May-15 21:08N 34°15' E 034°30'812.8
2015-May-15 20:33N 34°07' E 034°28'1312.6
2015-May-15 19:33N 33°55' E 034°26'1212.4
2015-May-15 18:33N 33°43' E 034°24'1412.7
2015-May-15 17:27N 33°29' E 034°23'1212.8
2015-May-15 16:32N 33°17' E 034°22'2912.7
2015-May-15 14:16N 32°48' E 034°19'1012.9
2015-May-15 13:30N 32°38' E 034°19'58 1.1
2015-May-13 10:15N 31°41' E 034°30'43 3.7
2015-May-12 22:24N 32°10' E 033°52'1613.3
2015-May-12 21:13N 32°25' E 033°56'1114.1
2015-May-12 20:26N 32°36' E 033°60'  

Dump ship's entire track history